createdAt,value
2023-06-05T00:00:57.512Z,4.70
2023-06-05T00:03:28.593Z,5.47
2023-06-05T00:05:56.502Z,4.67
2023-06-05T00:08:24.009Z,5.13
2023-06-05T00:10:51.509Z,4.97
2023-06-05T00:13:19.147Z,4.43
2023-06-05T00:15:47.430Z,5.13
2023-06-05T00:18:15.573Z,5.27
2023-06-05T00:20:42.971Z,4.87
2023-06-05T00:23:10.589Z,6.00
2023-06-05T00:25:38.309Z,5.40
2023-06-05T00:28:05.861Z,5.20
2023-06-05T00:30:33.381Z,5.37
2023-06-05T00:33:01.194Z,5.20
2023-06-05T00:35:28.866Z,5.10
2023-06-05T00:37:56.348Z,5.63
2023-06-05T00:40:24.026Z,5.67
2023-06-05T00:42:51.587Z,5.57
2023-06-05T00:45:19.473Z,6.27
2023-06-05T00:47:47.142Z,5.20
2023-06-05T00:50:16.353Z,6.30
2023-06-05T00:52:44.388Z,5.90
2023-06-05T00:55:13.114Z,6.10
2023-06-05T00:57:41.146Z,5.33
2023-06-05T01:00:09.901Z,5.60
2023-06-05T01:02:39.108Z,5.50
2023-06-05T01:05:06.497Z,5.43
2023-06-05T01:07:34.529Z,5.53
2023-06-05T01:10:03.093Z,5.33
2023-06-05T01:12:37.437Z,6.00
2023-06-05T01:15:06.929Z,5.70
2023-06-05T01:17:35.343Z,5.73
2023-06-05T01:20:08.984Z,5.90
2023-06-05T01:22:39.222Z,5.40
2023-06-05T01:25:11.001Z,6.37
2023-06-05T01:27:57.429Z,6.13
2023-06-05T01:30:36.477Z,5.17
2023-06-05T01:33:29.821Z,4.80
2023-06-05T01:35:57.229Z,5.07
2023-06-05T01:38:24.782Z,4.97
2023-06-05T01:40:52.779Z,4.63
2023-06-05T01:43:20.108Z,5.17
2023-06-05T01:45:47.270Z,4.93
2023-06-05T01:48:14.746Z,5.47
2023-06-05T01:50:43.745Z,5.43
2023-06-05T01:53:13.684Z,5.97
2023-06-05T01:55:42.400Z,4.93
2023-06-05T01:58:10.107Z,5.80
2023-06-05T02:00:37.490Z,5.47
2023-06-05T02:03:06.146Z,4.70
2023-06-05T02:05:34.835Z,5.07
2023-06-05T02:08:06.981Z,4.67
2023-06-05T02:10:35.117Z,5.13
2023-06-05T02:13:02.730Z,6.77
2023-06-05T02:15:30.367Z,4.90
2023-06-05T02:17:58.778Z,6.13
2023-06-05T02:20:26.618Z,4.80
2023-06-05T02:22:56.285Z,5.47
2023-06-05T02:25:27.351Z,4.90
2023-06-05T02:27:55.915Z,10.23
2023-06-05T02:30:23.595Z,5.30
2023-06-05T02:32:58.386Z,5.07
2023-06-05T02:35:26.161Z,5.37
2023-06-05T02:37:53.608Z,5.37
2023-06-05T02:40:21.393Z,5.07
2023-06-05T02:42:49.004Z,4.90
2023-06-05T02:45:16.631Z,5.03
2023-06-05T02:47:44.491Z,4.93
2023-06-05T02:50:11.945Z,5.60
2023-06-05T02:52:40.971Z,5.47
2023-06-05T02:55:09.433Z,5.10
2023-06-05T02:57:43.066Z,5.40
2023-06-05T03:00:16.047Z,5.07
2023-06-05T03:02:44.072Z,5.13
2023-06-05T03:05:13.081Z,5.60
2023-06-05T03:07:41.794Z,5.73
2023-06-05T03:10:09.861Z,5.50
2023-06-05T03:12:37.515Z,5.73
2023-06-05T03:15:05.547Z,5.57
2023-06-05T03:17:33.310Z,5.80
2023-06-05T03:20:01.266Z,5.73
2023-06-05T03:22:28.968Z,4.70
2023-06-05T03:24:56.909Z,5.17
2023-06-05T03:27:24.750Z,5.70
2023-06-05T03:29:52.303Z,5.40
2023-06-05T03:32:19.948Z,4.90
2023-06-05T03:34:49.844Z,6.30
2023-06-05T03:37:17.766Z,5.40
2023-06-05T03:39:45.146Z,5.40
2023-06-05T03:42:12.903Z,5.93
2023-06-05T03:44:40.533Z,5.57
2023-06-05T03:47:09.471Z,5.50
2023-06-05T03:49:37.147Z,5.60
2023-06-05T03:52:05.132Z,5.97
2023-06-05T03:54:35.528Z,5.67
2023-06-05T03:57:03.922Z,5.17
2023-06-05T03:59:32.695Z,5.83
2023-06-05T04:02:00.594Z,6.83
2023-06-05T04:04:28.156Z,5.50
2023-06-05T04:06:58.825Z,6.20
2023-06-05T04:09:26.976Z,5.17
2023-06-05T04:11:55.442Z,5.57
2023-06-05T04:14:23.150Z,6.20
2023-06-05T04:16:50.722Z,5.70
2023-06-05T04:19:18.575Z,5.87
2023-06-05T04:21:46.343Z,5.33
2023-06-05T04:24:13.762Z,6.20
2023-06-05T04:26:42.814Z,5.70
2023-06-05T04:29:20.014Z,5.20
2023-06-05T04:31:49.087Z,5.40
2023-06-05T04:34:19.512Z,5.30
2023-06-05T04:36:51.890Z,5.97
2023-06-05T04:39:19.591Z,5.10
2023-06-05T04:41:57.087Z,5.93
2023-06-05T04:44:30.654Z,5.47
2023-06-05T04:46:58.151Z,5.83
2023-06-05T04:49:25.811Z,5.03
2023-06-05T04:51:54.854Z,5.60
2023-06-05T04:54:22.554Z,5.20
2023-06-05T04:56:51.386Z,5.07
2023-06-05T04:59:19.014Z,5.37
2023-06-05T05:01:46.658Z,5.03
2023-06-05T05:04:14.509Z,5.20
2023-06-05T05:06:49.000Z,5.40
2023-06-05T05:09:16.794Z,5.00
2023-06-05T05:11:44.014Z,5.97
2023-06-05T05:14:11.616Z,5.20
2023-06-05T05:16:39.688Z,5.60
2023-06-05T05:19:07.264Z,5.80
2023-06-05T05:21:34.986Z,5.47
2023-06-05T05:24:02.495Z,5.80
2023-06-05T05:26:30.664Z,5.40
2023-06-05T05:28:58.095Z,5.83
2023-06-05T05:31:25.639Z,5.63
2023-06-05T05:33:53.194Z,5.53
2023-06-05T05:36:20.973Z,5.40
2023-06-05T05:38:48.870Z,5.93
2023-06-05T05:41:16.496Z,6.00
2023-06-05T05:43:43.723Z,5.63
2023-06-05T05:46:11.270Z,5.03
2023-06-05T05:48:39.257Z,6.10
2023-06-05T05:51:07.680Z,6.03
2023-06-05T05:53:35.732Z,5.77
2023-06-05T05:56:03.145Z,5.73
2023-06-05T05:58:30.907Z,6.00
2023-06-05T06:00:59.073Z,6.30
2023-06-05T06:03:30.814Z,5.70
2023-06-05T06:05:59.519Z,6.20
2023-06-05T06:08:28.219Z,5.87
2023-06-05T06:10:56.395Z,6.00
2023-06-05T06:13:24.218Z,5.97
2023-06-05T06:15:51.923Z,5.63
2023-06-05T06:18:20.687Z,5.97
2023-06-05T06:20:48.429Z,5.60
2023-06-05T06:23:15.784Z,5.90
2023-06-05T06:25:46.348Z,6.03
2023-06-05T06:28:13.950Z,5.90
2023-06-05T06:30:41.507Z,7.00
2023-06-05T06:33:08.892Z,5.90
2023-06-05T06:35:36.438Z,5.67
2023-06-05T06:38:04.465Z,6.27
2023-06-05T06:40:33.128Z,5.70
2023-06-05T06:43:00.724Z,5.80
2023-06-05T06:45:28.874Z,5.80
2023-06-05T06:48:07.231Z,6.00
2023-06-05T06:50:36.347Z,5.97
2023-06-05T06:53:04.799Z,5.87
2023-06-05T06:55:32.795Z,5.53
2023-06-05T06:58:00.327Z,6.33
2023-06-05T07:00:28.027Z,5.87
2023-06-05T07:02:55.698Z,5.37
2023-06-05T07:05:23.903Z,5.83
2023-06-05T07:07:51.806Z,6.00
2023-06-05T07:10:19.227Z,5.60
2023-06-05T07:12:46.613Z,5.87
2023-06-05T07:15:14.197Z,5.53
2023-06-05T07:17:41.565Z,7.37
2023-06-05T07:20:10.881Z,6.20
2023-06-05T07:22:38.438Z,6.20
2023-06-05T07:25:06.696Z,5.57
2023-06-05T07:27:34.245Z,6.50
2023-06-05T07:30:02.218Z,6.13
2023-06-05T07:32:29.789Z,5.93
2023-06-05T07:34:58.572Z,6.50
2023-06-05T07:37:26.469Z,6.03
2023-06-05T07:39:55.486Z,5.53
2023-06-05T07:42:23.042Z,6.73
2023-06-05T07:44:50.699Z,6.20
2023-06-05T07:47:18.475Z,5.87
2023-06-05T07:49:46.035Z,6.03
2023-06-05T07:52:13.253Z,5.47
2023-06-05T07:54:40.913Z,5.33
2023-06-05T07:57:09.681Z,6.10
2023-06-05T07:59:36.908Z,6.37
2023-06-05T08:02:04.575Z,6.22
2023-06-05T08:04:32.045Z,6.20
2023-06-05T08:06:59.400Z,6.15
2023-06-05T08:09:27.253Z,5.95
2023-06-05T08:11:54.805Z,6.17
2023-06-05T08:14:22.407Z,6.10
2023-06-05T08:16:49.665Z,6.03
2023-06-05T08:19:17.314Z,6.03
2023-06-05T08:21:45.106Z,6.13
2023-06-05T08:24:12.474Z,6.25
2023-06-05T08:26:39.737Z,5.97
2023-06-05T08:29:07.841Z,5.65
2023-06-05T08:31:36.196Z,5.68
2023-06-05T08:34:03.790Z,6.65
2023-06-05T08:36:34.093Z,6.03
2023-06-05T08:39:01.791Z,6.20
2023-06-05T08:41:32.380Z,6.20
2023-06-05T08:44:00.075Z,6.47
2023-06-05T08:46:29.802Z,6.67
2023-06-05T08:48:57.437Z,6.60
2023-06-05T08:51:25.100Z,6.82
2023-06-05T08:54:18.861Z,7.30
2023-06-05T08:56:46.065Z,6.57
2023-06-05T08:59:16.627Z,6.72
2023-06-05T09:01:45.375Z,6.82
2023-06-05T09:04:13.162Z,6.88
2023-06-05T09:06:41.345Z,6.20
2023-06-05T09:09:09.290Z,7.22
2023-06-05T09:11:38.104Z,7.65
2023-06-05T09:14:05.323Z,7.18
2023-06-05T09:16:40.204Z,7.00
2023-06-05T09:19:08.039Z,6.70
2023-06-05T09:21:36.138Z,7.38
2023-06-05T09:24:20.242Z,6.65
2023-06-05T09:27:04.892Z,7.13
2023-06-05T09:29:33.864Z,6.78
2023-06-05T09:32:21.101Z,7.53
2023-06-05T09:35:00.892Z,7.63
2023-06-05T09:37:36.763Z,7.73
2023-06-05T09:40:10.173Z,7.70
2023-06-05T09:42:37.702Z,8.13
2023-06-05T09:45:05.836Z,8.10
2023-06-05T09:47:45.451Z,8.17
2023-06-05T09:50:29.081Z,8.13
2023-06-05T09:52:57.042Z,8.93
2023-06-05T09:55:24.878Z,8.10
2023-06-05T09:57:52.939Z,8.33
2023-06-05T10:00:22.025Z,8.73
2023-06-05T10:02:49.587Z,8.63
2023-06-05T10:05:16.835Z,8.83
2023-06-05T10:07:44.549Z,8.63
2023-06-05T10:10:11.969Z,8.90
2023-06-05T10:12:40.047Z,9.40
2023-06-05T10:15:10.866Z,9.30
2023-06-05T10:17:40.670Z,7.77
2023-06-05T10:20:09.015Z,8.57
2023-06-05T10:22:38.057Z,8.73
2023-06-05T10:25:06.476Z,8.60
2023-06-05T10:27:48.979Z,7.70
2023-06-05T10:30:33.364Z,8.47
2023-06-05T10:33:36.015Z,9.17
2023-06-05T10:36:12.718Z,7.57
2023-06-05T10:38:40.707Z,7.70
2023-06-05T10:41:08.430Z,7.90
2023-06-05T10:43:48.757Z,7.77
2023-06-05T10:46:37.711Z,7.60
2023-06-05T10:49:09.837Z,7.72
2023-06-05T10:51:48.246Z,7.60
2023-06-05T10:54:25.448Z,6.70
2023-06-05T10:57:03.036Z,7.47
2023-06-05T10:59:32.265Z,6.53
2023-06-05T11:02:18.207Z,7.00
2023-06-05T11:04:49.215Z,7.32
2023-06-05T11:07:24.230Z,6.78
2023-06-05T11:10:07.379Z,6.15
2023-06-05T11:12:41.225Z,5.72
2023-06-05T11:15:09.580Z,6.32
2023-06-05T11:17:41.940Z,6.35
2023-06-05T11:20:11.598Z,6.13
2023-06-05T11:22:54.429Z,6.30
2023-06-05T11:25:34.724Z,6.47
2023-06-05T11:28:05.874Z,5.93
2023-06-05T11:30:46.610Z,6.30
2023-06-05T11:33:20.751Z,6.30
2023-06-05T11:36:06.568Z,6.68
2023-06-05T11:38:34.694Z,7.03
2023-06-05T11:41:06.620Z,7.18
2023-06-05T11:43:33.732Z,6.70
2023-06-05T11:46:01.279Z,7.93
2023-06-05T11:48:30.961Z,7.27
2023-06-05T11:51:05.651Z,7.40
2023-06-05T11:53:33.973Z,8.40
2023-06-05T11:56:10.892Z,7.25
2023-06-05T11:58:40.166Z,7.35
2023-06-05T12:01:16.135Z,7.15
2023-06-05T12:03:43.889Z,7.20
2023-06-05T12:06:14.586Z,7.10
2023-06-05T12:08:42.229Z,7.88
2023-06-05T12:11:23.937Z,6.97
2023-06-05T12:13:55.546Z,8.23
2023-06-05T12:16:33.588Z,7.90
2023-06-05T12:19:13.573Z,8.07
2023-06-05T12:21:42.993Z,8.18
2023-06-05T12:24:10.569Z,8.50
2023-06-05T12:26:55.587Z,8.50
2023-06-05T12:29:31.180Z,8.10
2023-06-05T12:31:59.897Z,7.90
2023-06-05T12:37:34.029Z,7.35
2023-06-05T12:40:02.069Z,6.47
2023-06-05T12:42:30.045Z,8.23
2023-06-05T12:44:57.996Z,6.13
2023-06-05T12:47:25.473Z,6.82
2023-06-05T12:49:53.058Z,7.97
2023-06-05T12:52:20.670Z,6.50
2023-06-05T12:54:48.276Z,6.43
2023-06-05T12:57:16.300Z,6.88
2023-06-05T12:59:43.873Z,7.47
2023-06-05T13:02:11.459Z,7.35
2023-06-05T13:04:40.914Z,6.82
2023-06-05T13:07:09.106Z,7.40
2023-06-05T13:09:36.786Z,8.38
2023-06-05T13:12:05.571Z,7.93
2023-06-05T13:14:33.577Z,8.95
2023-06-05T13:17:01.783Z,8.60
2023-06-05T13:19:29.325Z,7.32
2023-06-05T13:21:56.965Z,8.93
2023-06-05T13:24:24.567Z,7.00
2023-06-05T13:26:52.195Z,4.17
2023-06-05T13:29:19.660Z,4.90
2023-06-05T13:31:47.234Z,4.33
2023-06-05T13:34:14.828Z,6.00
2023-06-05T13:36:42.557Z,5.40
2023-06-05T13:39:10.904Z,4.23
2023-06-05T13:41:38.371Z,4.60
2023-06-05T13:44:05.645Z,5.00
2023-06-05T13:46:33.468Z,4.30
2023-06-05T13:49:02.328Z,4.73
2023-06-05T13:51:29.603Z,4.23
2023-06-05T13:53:58.858Z,4.70
2023-06-05T13:56:26.903Z,6.40
2023-06-05T13:58:54.244Z,6.07
2023-06-05T14:01:21.954Z,5.73
2023-06-05T14:03:49.967Z,8.60
2023-06-05T14:06:21.786Z,6.30
2023-06-05T14:08:49.216Z,6.40
2023-06-05T14:11:17.056Z,6.63
2023-06-05T14:13:44.579Z,5.50
2023-06-05T14:16:13.780Z,6.17
2023-06-05T14:18:41.459Z,4.70
2023-06-05T14:21:08.953Z,5.70
2023-06-05T14:23:36.156Z,5.43
2023-06-05T14:26:03.742Z,5.13
2023-06-05T14:28:31.419Z,4.73
2023-06-05T14:30:59.044Z,6.00
2023-06-05T14:33:26.822Z,5.13
2023-06-05T14:35:54.422Z,5.63
2023-06-05T14:38:21.903Z,4.23
2023-06-05T14:40:52.323Z,3.90
2023-06-05T14:43:20.354Z,4.67
2023-06-05T14:45:48.344Z,3.60
2023-06-05T14:48:15.892Z,3.97
2023-06-05T14:50:43.764Z,4.00
2023-06-05T14:53:11.719Z,4.50
2023-06-05T14:55:39.653Z,3.47
2023-06-05T14:58:08.803Z,3.80
2023-06-05T15:00:36.271Z,4.10
2023-06-05T15:03:03.984Z,3.60
2023-06-05T15:05:31.963Z,4.70
2023-06-05T15:08:00.030Z,4.27
2023-06-05T15:10:28.236Z,4.30
2023-06-05T15:12:58.808Z,4.13
2023-06-05T15:15:26.539Z,4.67
2023-06-05T15:17:53.984Z,3.87
2023-06-05T15:20:25.048Z,4.70
2023-06-05T15:23:11.391Z,4.80
2023-06-05T15:25:41.619Z,4.10
2023-06-05T15:28:09.261Z,4.40
2023-06-05T15:30:36.760Z,4.47
2023-06-05T15:33:04.752Z,4.57
2023-06-05T15:35:32.395Z,4.93
2023-06-05T15:37:59.866Z,4.07
2023-06-05T15:40:27.405Z,5.00
2023-06-05T15:43:13.173Z,5.03
2023-06-05T15:45:40.859Z,4.97
2023-06-05T15:48:09.636Z,5.27
2023-06-05T15:50:37.033Z,4.70
2023-06-05T15:53:05.417Z,9.77
2023-06-05T15:55:33.368Z,6.20
2023-06-05T15:58:01.203Z,5.43
2023-06-05T16:00:28.659Z,6.07
2023-06-05T16:02:56.730Z,5.60
2023-06-05T16:05:24.558Z,6.00
2023-06-05T16:07:52.060Z,5.47
2023-06-05T16:10:20.524Z,5.57
2023-06-05T16:12:48.523Z,6.07
2023-06-05T16:15:16.084Z,13.13
2023-06-05T16:17:43.705Z,6.87
2023-06-05T16:20:11.448Z,6.70
2023-06-05T16:22:38.887Z,6.40
2023-06-05T16:25:07.164Z,6.83
2023-06-05T16:27:34.489Z,6.73
2023-06-05T16:30:01.896Z,6.40
2023-06-05T16:32:29.700Z,7.17
2023-06-05T16:34:57.296Z,7.10
2023-06-05T16:37:24.763Z,7.37
2023-06-05T16:39:52.338Z,6.67
2023-06-05T16:42:19.492Z,6.83
2023-06-05T16:44:47.017Z,7.27
2023-06-05T16:47:14.535Z,7.07
2023-06-05T16:49:42.322Z,7.50
2023-06-05T16:52:09.915Z,6.93
2023-06-05T16:54:37.423Z,7.17
2023-06-05T16:57:07.210Z,7.50
2023-06-05T16:59:34.546Z,6.90
2023-06-05T17:02:02.299Z,6.50
2023-06-05T17:04:30.196Z,6.77
2023-06-05T17:06:58.503Z,7.60
2023-06-05T17:09:28.235Z,8.43
2023-06-05T17:11:56.081Z,8.00
2023-06-05T17:14:23.654Z,6.87
2023-06-05T17:16:51.259Z,7.30
2023-06-05T17:19:18.785Z,7.40
2023-06-05T17:21:46.080Z,6.83
2023-06-05T17:24:13.656Z,6.43
2023-06-05T17:26:41.192Z,7.27
2023-06-05T17:29:08.483Z,6.97
2023-06-05T17:31:35.937Z,6.37
2023-06-05T17:34:03.694Z,6.63
2023-06-05T17:36:31.089Z,6.30
2023-06-05T17:38:58.577Z,6.63
2023-06-05T17:41:26.399Z,6.17
2023-06-05T17:43:56.321Z,6.80
2023-06-05T17:46:23.804Z,6.57
2023-06-05T17:48:51.457Z,5.97
2023-06-05T17:51:19.166Z,7.13
2023-06-05T17:53:47.192Z,6.93
2023-06-05T17:56:14.642Z,7.60
2023-06-05T17:58:41.899Z,7.10
2023-06-05T18:01:09.693Z,7.00
2023-06-05T18:03:37.650Z,8.07
2023-06-05T18:06:07.050Z,6.57
2023-06-05T18:08:35.266Z,7.13
2023-06-05T18:11:04.374Z,6.93
2023-06-05T18:13:32.686Z,7.07
2023-06-05T18:16:00.003Z,7.00
2023-06-05T18:18:27.525Z,6.57
2023-06-05T18:20:54.963Z,6.07
2023-06-05T18:23:22.515Z,7.20
2023-06-05T18:25:49.867Z,6.47
2023-06-05T18:28:18.083Z,6.43
2023-06-05T18:30:45.453Z,5.73
2023-06-05T18:33:13.483Z,7.00
2023-06-05T18:35:42.231Z,6.07
2023-06-05T18:38:10.794Z,5.90
2023-06-05T18:40:38.219Z,6.97
2023-06-05T18:43:05.728Z,6.70
2023-06-05T18:45:34.706Z,6.70
2023-06-05T18:48:02.528Z,6.20
2023-06-05T18:50:30.003Z,6.17
2023-06-05T18:52:57.740Z,5.83
2023-06-05T18:55:25.657Z,6.23
2023-06-05T18:57:52.809Z,7.20
2023-06-05T19:00:20.448Z,8.13
2023-06-05T19:02:48.179Z,8.93
2023-06-05T19:05:15.780Z,10.57
2023-06-05T19:07:43.066Z,9.10
2023-06-05T19:10:11.217Z,6.80
2023-06-05T19:12:39.401Z,8.30
2023-06-05T19:15:07.412Z,7.80
2023-06-05T19:17:34.644Z,10.13
2023-06-05T19:20:02.157Z,8.10
2023-06-05T19:22:29.698Z,9.43
2023-06-05T19:24:57.180Z,7.60
2023-06-05T19:27:24.610Z,6.63
2023-06-05T19:29:52.346Z,7.13
2023-06-05T19:32:20.200Z,7.47
2023-06-05T19:34:47.512Z,7.10
2023-06-05T19:37:14.948Z,7.30
2023-06-05T19:39:42.501Z,6.67
2023-06-05T19:42:10.999Z,6.43
2023-06-05T19:44:38.318Z,6.93
2023-06-05T19:47:06.875Z,6.50
2023-06-05T19:49:34.319Z,7.37
2023-06-05T19:52:04.026Z,6.60
2023-06-05T19:54:31.810Z,6.87
2023-06-05T19:56:59.607Z,6.93
2023-06-05T19:59:27.068Z,7.27
2023-06-05T20:01:54.547Z,7.40
2023-06-05T20:04:22.118Z,8.20
2023-06-05T20:06:49.507Z,7.90
2023-06-05T20:09:17.255Z,6.67
2023-06-05T20:11:44.822Z,7.20
2023-06-05T20:14:12.562Z,7.57
2023-06-05T20:16:40.319Z,7.20
2023-06-05T20:19:07.467Z,7.40
2023-06-05T20:21:36.038Z,7.67
2023-06-05T20:24:04.492Z,8.97
2023-06-05T20:26:31.827Z,8.60
2023-06-05T20:28:59.038Z,7.10
2023-06-05T20:31:26.598Z,7.33
2023-06-05T20:33:58.707Z,7.13
2023-06-05T20:36:26.464Z,6.97
2023-06-05T20:38:54.641Z,7.60
2023-06-05T20:41:24.446Z,8.60
2023-06-05T20:43:52.199Z,6.80
2023-06-05T20:46:23.649Z,5.97
2023-06-05T20:48:52.453Z,5.80
2023-06-05T20:51:22.555Z,5.07
2023-06-05T20:53:50.357Z,4.43
2023-06-05T20:56:27.872Z,4.20
2023-06-05T20:58:55.661Z,4.90
2023-06-05T21:01:23.496Z,5.43
2023-06-05T21:03:51.182Z,6.07
2023-06-05T21:06:19.803Z,5.40
2023-06-05T21:08:47.179Z,5.13
2023-06-05T21:11:14.632Z,4.93
2023-06-05T21:13:42.433Z,4.57
2023-06-05T21:16:09.686Z,5.00
2023-06-05T21:18:37.180Z,5.43
2023-06-05T21:21:04.788Z,5.33
2023-06-05T21:23:32.391Z,4.57
2023-06-05T21:26:00.298Z,4.40
2023-06-05T21:28:27.813Z,4.37
2023-06-05T21:31:00.314Z,4.77
2023-06-05T21:33:27.630Z,5.03
2023-06-05T21:35:55.298Z,5.03
2023-06-05T21:38:22.864Z,5.37
2023-06-05T21:40:50.320Z,5.37
2023-06-05T21:43:17.672Z,5.60
2023-06-05T21:45:46.522Z,5.20
2023-06-05T21:48:14.309Z,5.90
2023-06-05T21:50:41.811Z,4.90
2023-06-05T21:53:09.329Z,5.33
2023-06-05T21:55:36.957Z,4.80
2023-06-05T21:58:04.388Z,5.20
2023-06-05T22:00:31.800Z,5.00
2023-06-05T22:02:59.215Z,5.20
2023-06-05T22:05:26.381Z,4.77
2023-06-05T22:07:54.723Z,5.13
2023-06-05T22:10:21.990Z,5.33
2023-06-05T22:12:49.837Z,5.10
2023-06-05T22:15:20.114Z,4.73
2023-06-05T22:17:49.142Z,5.13
2023-06-05T22:20:17.769Z,4.30
2023-06-05T22:22:45.274Z,4.40
2023-06-05T22:25:12.672Z,5.10
2023-06-05T22:27:40.428Z,4.87
2023-06-05T22:30:08.627Z,4.70
2023-06-05T22:32:36.795Z,4.33
2023-06-05T22:35:05.324Z,3.93
2023-06-05T22:37:34.862Z,4.40
2023-06-05T22:40:02.915Z,4.47
2023-06-05T22:42:31.837Z,4.70
2023-06-05T22:44:59.735Z,4.77
2023-06-05T22:47:28.020Z,4.43
2023-06-05T22:49:55.674Z,4.70
2023-06-05T22:52:23.673Z,4.80
2023-06-05T22:54:51.821Z,4.60
2023-06-05T22:57:18.985Z,4.40
2023-06-05T22:59:46.171Z,4.33
2023-06-05T23:02:13.757Z,4.67
2023-06-05T23:04:41.606Z,4.50
2023-06-05T23:07:09.119Z,4.60
2023-06-05T23:09:36.619Z,4.60
2023-06-05T23:12:04.214Z,4.60
2023-06-05T23:14:33.128Z,4.87
2023-06-05T23:17:00.978Z,4.70
2023-06-05T23:19:29.102Z,4.70
2023-06-05T23:21:56.661Z,5.03
2023-06-05T23:24:23.991Z,4.43
2023-06-05T23:26:51.864Z,4.50
2023-06-05T23:29:19.612Z,4.20
2023-06-05T23:31:47.434Z,4.77
2023-06-05T23:34:15.064Z,4.20
2023-06-05T23:36:46.721Z,4.40
2023-06-05T23:39:14.587Z,4.20
2023-06-05T23:41:47.516Z,4.00
2023-06-05T23:44:18.640Z,4.50
2023-06-05T23:46:47.095Z,4.50
2023-06-05T23:49:14.626Z,4.60
2023-06-05T23:51:41.822Z,4.67
2023-06-05T23:54:10.643Z,4.73
2023-06-05T23:56:39.667Z,4.40
2023-06-05T23:59:07.219Z,4.50
